Rocky Springs, South Carolina
Current Conditions -  °F | °C
As of 9:55 AM on Saturday 20 Dec 2014 (Local Time) from KAIK Reporting Station
Drizzle Drizzle  
Wind Chill: 46°   Ceiling: 400
Heat Index: 46°   Visibility: 7mi
Dew Point: 46°   Wind: 3mph
Humidity: 100%   Direction: 70°ENE
Pressure: 30.25"   Gusts: NA
Location:  33.6528°N, 81.4253°W
Report Text: KAIK 201455Z AUTO 07003KT 7SM -DZ BKN004 BKN042 OVC050 08/08 A3025 RMK AO2 PNO
Loading
Personal Weather Stations






























Interactive Weather Map New forecast layout! Learn more

10-Day Weather Forecast

Advertisements
Track Severe Weather on mobile